Alcester, South Dakota
Current Conditions -  °F | °C
As of 5:15 AM on Monday 22 Dec 2014 (Local Time) from KLRJ Reporting Station
Unknown Precip Unknown Precip  
Wind Chill: 37°   Ceiling: 1200
Heat Index: 43°   Visibility: 5mi
Dew Point: 41°   Wind: 10mph
Humidity: 93%   Direction: 160°SSE
Pressure: 29.51"   Gusts: 17mph
Location:  43.02°N, 96.63°W
Report Text: KLRJ 221115Z AUTO 16009G15KT 5SM -UP BKN012 BKN020 OVC028 06/05 A2951 RMK AO2
Loading
Personal Weather Stations






























Interactive Weather Map New forecast layout! Learn more

10-Day Weather Forecast

Advertisements
Track Severe Weather on mobile